Time;durP1;ratioP1;P1;durP2;ratioP2;P2;SDS_P1;SDS_P2;PMS_P1;PMS_P2;Temp;Humidity;BMP_temperature;BMP_pressure;BME280_temperature;BME280_humidity;BME280_pressure;Samples;Min_cycle;Max_cycle;Signal;HPM_P1;HPM_P2
2023/12/30 00:02:04;;;;;;;3.20;2.42;;;;;;;-146.82;100.00;71671.09;5059208;28;20013;-77
2023/12/30 00:04:29;;;;;;;3.42;2.17;;;;;;;-146.82;100.00;71671.09;5058753;28;20025;-77
2023/12/30 00:07:07;;;;;;;3.67;2.15;;;;;;;-146.82;100.00;71671.09;5057450;28;20037;-76
2023/12/30 00:09:48;;;;;;;2.28;1.92;;;;;;;-146.82;100.00;71671.09;5058947;28;20040;-76
2023/12/30 00:12:16;;;;;;;2.45;1.90;;;;;;;-146.82;100.00;71671.09;5060505;28;20110;-76
2023/12/30 00:14:44;;;;;;;2.50;2.08;;;;;;;-146.82;100.00;71671.09;5059610;28;20067;-76
2023/12/30 00:17:09;;;;;;;3.03;2.00;;;;;;;-146.82;100.00;71671.09;5059276;28;20027;-76
2023/12/30 00:19:42;;;;;;;4.95;2.10;;;;;;;-146.82;100.00;71671.09;5058792;28;20021;-78
2023/12/30 00:22:15;;;;;;;2.67;1.98;;;;;;;-146.82;100.00;71671.09;5058665;28;20024;-77
2023/12/30 00:24:49;;;;;;;3.05;1.95;;;;;;;-146.82;100.00;71671.09;5056848;28;20114;-74
2023/12/30 00:27:28;;;;;;;3.63;2.10;;;;;;;-146.82;100.00;71671.09;5058785;28;20029;-77
2023/12/30 00:29:59;;;;;;;2.50;1.90;;;;;;;-146.82;100.00;71671.09;5058385;28;20025;-76
2023/12/30 00:32:26;;;;;;;3.67;1.95;;;;;;;-146.82;100.00;71671.09;5058339;28;20032;-76
2023/12/30 00:34:54;;;;;;;3.05;2.35;;;;;;;-146.82;100.00;71671.09;5057177;28;20367;-76
2023/12/30 00:37:28;;;;;;;2.92;1.98;;;;;;;-146.82;100.00;71671.09;5058644;28;20032;-77
2023/12/30 00:39:53;;;;;;;3.38;2.08;;;;;;;-146.82;100.00;71671.09;5058386;28;20099;-76
2023/12/30 00:42:20;;;;;;;3.03;2.05;;;;;;;-146.82;100.00;71671.09;5058016;28;20040;-76
2023/12/30 00:44:51;;;;;;;2.80;2.08;;;;;;;-146.82;100.00;71671.09;5058341;28;20028;-75
2023/12/30 00:47:30;;;;;;;2.05;1.70;;;;;;;-146.82;100.00;71671.09;5056386;28;20083;-77
2023/12/30 00:49:55;;;;;;;3.42;2.22;;;;;;;-146.82;100.00;71671.09;5052866;28;20064;-76
2023/12/30 00:52:21;;;;;;;3.45;2.28;;;;;;;-146.82;100.00;71671.09;5055077;28;20485;-77
2023/12/30 00:54:47;;;;;;;2.95;2.47;;;;;;;-146.82;100.00;71671.09;5056424;28;20061;-77
2023/12/30 00:57:13;;;;;;;3.28;2.25;;;;;;;-146.82;100.00;71671.09;5056967;28;20112;-76
2023/12/30 00:59:41;;;;;;;2.40;2.20;;;;;;;-146.82;100.00;71671.09;5056346;28;20083;-76
2023/12/30 01:02:06;;;;;;;2.00;1.75;;;;;;;-146.82;100.00;71671.09;5054899;28;20017;-77
2023/12/30 01:04:32;;;;;;;4.03;2.58;;;;;;;-146.82;100.00;71671.09;5056137;28;20052;-77
2023/12/30 01:06:59;;;;;;;2.78;1.90;;;;;;;-146.82;100.00;71671.09;5039135;28;20056;-75
2023/12/30 01:09:25;;;;;;;4.53;2.20;;;;;;;-146.82;100.00;71671.09;5056538;28;20082;-77
2023/12/30 01:11:51;;;;;;;3.05;2.10;;;;;;;-146.82;100.00;71671.09;5037978;28;20029;-76
2023/12/30 01:14:18;;;;;;;3.03;2.10;;;;;;;-146.82;100.00;71671.09;5055716;28;20364;-76
2023/12/30 01:16:44;;;;;;;4.55;2.13;;;;;;;-146.82;100.00;71671.09;5054599;28;20485;-77
2023/12/30 01:19:10;;;;;;;2.85;2.22;;;;;;;-146.82;100.00;71671.09;5037780;28;20029;-76
2023/12/30 01:21:37;;;;;;;3.13;2.03;;;;;;;-146.82;100.00;71671.09;5037754;28;20032;-77
2023/12/30 01:24:17;;;;;;;5.30;2.00;;;;;;;-146.82;100.00;71671.09;5055699;28;20111;-78
2023/12/30 01:26:43;;;;;;;3.55;2.72;;;;;;;-146.82;100.00;71671.09;5054758;28;20068;-76
2023/12/30 01:29:09;;;;;;;3.97;2.50;;;;;;;-146.82;100.00;71671.09;5055353;28;20110;-75
2023/12/30 01:31:35;;;;;;;3.75;2.05;;;;;;;-146.82;100.00;71671.09;5055671;28;20112;-75
2023/12/30 01:34:02;;;;;;;5.10;2.45;;;;;;;-146.82;100.00;71671.09;5055106;28;20103;-76
2023/12/30 01:36:28;;;;;;;4.72;2.30;;;;;;;-146.82;100.00;71671.09;5055561;28;20024;-75
2023/12/30 01:38:56;;;;;;;2.83;2.00;;;;;;;-146.82;100.00;71671.09;5055424;28;20036;-77
2023/12/30 01:41:22;;;;;;;3.10;2.28;;;;;;;-146.82;100.00;71671.09;5054836;28;20470;-77
2023/12/30 01:43:49;;;;;;;3.22;1.60;;;;;;;-146.82;100.00;71671.09;5055033;28;20025;-76
2023/12/30 01:46:17;;;;;;;3.22;2.42;;;;;;;-146.82;100.00;71671.09;5055303;28;20471;-77
2023/12/30 01:48:43;;;;;;;4.13;1.95;;;;;;;-146.82;100.00;71671.09;5055320;28;20032;-77
2023/12/30 01:51:08;;;;;;;2.80;1.98;;;;;;;-146.82;100.00;71671.09;5053629;28;20041;-75
2023/12/30 01:53:39;;;;;;;3.78;2.28;;;;;;;-146.82;100.00;71671.09;5053770;28;20035;-76
2023/12/30 01:56:05;;;;;;;3.53;2.40;;;;;;;-146.82;100.00;71671.09;5037174;28;20036;-81
2023/12/30 01:58:40;;;;;;;3.10;1.88;;;;;;;-146.82;100.00;71671.09;5053719;28;20025;-82
2023/12/30 02:01:06;;;;;;;3.70;2.42;;;;;;;-146.82;100.00;71671.09;5055277;28;20025;-82
2023/12/30 02:03:33;;;;;;;2.47;1.85;;;;;;;-146.82;100.00;71671.09;5053654;28;20038;-82
2023/12/30 02:06:07;;;;;;;3.45;2.35;;;;;;;-146.82;100.00;71671.09;5053794;28;20382;-83
2023/12/30 02:08:33;;;;;;;4.30;2.03;;;;;;;-146.82;100.00;71671.09;5053834;28;20075;-81
2023/12/30 02:11:02;;;;;;;2.63;2.05;;;;;;;-146.82;100.00;71671.09;5053810;28;20060;-81
2023/12/30 02:13:29;;;;;;;2.45;1.92;;;;;;;-146.82;100.00;71671.09;5053112;28;20048;-81
2023/12/30 02:15:54;;;;;;;3.10;2.00;;;;;;;-146.82;100.00;71671.09;5053406;28;20513;-80
2023/12/30 02:18:27;;;;;;;2.83;2.10;;;;;;;-146.82;100.00;71671.09;5053471;28;20510;-81
2023/12/30 02:20:52;;;;;;;2.97;2.28;;;;;;;-146.82;100.00;71671.09;5053673;28;20473;-81
2023/12/30 02:23:25;;;;;;;3.65;2.38;;;;;;;-146.82;100.00;71671.09;5053534;28;20115;-81
2023/12/30 02:25:53;;;;;;;4.25;2.17;;;;;;;-146.82;100.00;71671.09;5052946;28;20076;-82
2023/12/30 02:28:23;;;;;;;2.45;1.58;;;;;;;-146.82;100.00;71671.09;5053196;28;20027;-81
2023/12/30 02:30:49;;;;;;;2.85;2.00;;;;;;;-146.82;100.00;71671.09;5052731;28;20102;-82
2023/12/30 02:33:17;;;;;;;2.13;1.85;;;;;;;-146.82;100.00;71671.09;5052960;28;20037;-81
2023/12/30 02:35:42;;;;;;;4.70;2.42;;;;;;;-146.82;100.00;71671.09;5053356;28;20029;-82
2023/12/30 02:38:09;;;;;;;5.00;2.22;;;;;;;-146.82;100.00;71671.09;5051803;28;20035;-81
2023/12/30 02:40:41;;;;;;;2.25;1.92;;;;;;;-146.82;100.00;71671.09;5053021;28;20111;-82
2023/12/30 02:43:07;;;;;;;2.88;2.30;;;;;;;-146.82;100.00;71671.09;5054584;28;20021;-81
2023/12/30 02:45:37;;;;;;;4.15;1.90;;;;;;;-146.82;100.00;71671.09;5051974;28;20381;-80
2023/12/30 02:48:09;;;;;;;2.50;2.17;;;;;;;-146.82;100.00;71671.09;5052776;28;20402;-76
2023/12/30 02:50:43;;;;;;;5.97;2.28;;;;;;;-146.82;100.00;71671.09;5052699;28;20029;-78
2023/12/30 02:53:08;;;;;;;3.17;2.20;;;;;;;-146.82;100.00;71671.09;5052743;28;20516;-76
2023/12/30 02:55:34;;;;;;;3.00;1.80;;;;;;;-146.82;100.00;71671.09;5053955;28;20028;-75
2023/12/30 02:58:00;;;;;;;3.90;2.28;;;;;;;-146.82;100.00;71671.09;5053801;28;20091;-76
2023/12/30 03:00:26;;;;;;;5.10;2.40;;;;;;;-146.82;100.00;71671.09;5052401;28;20048;-76
2023/12/30 03:03:00;;;;;;;4.40;1.98;;;;;;;-146.82;100.00;71671.09;5053532;28;20041;-76
2023/12/30 03:05:27;;;;;;;4.40;1.90;;;;;;;-146.82;100.00;71671.09;5053886;28;20087;-77
2023/12/30 03:07:57;;;;;;;3.08;1.67;;;;;;;-146.82;100.00;71671.09;5053830;28;20029;-76
2023/12/30 03:10:31;;;;;;;2.50;1.80;;;;;;;-146.82;100.00;71671.09;5053412;28;20025;-77
2023/12/30 03:12:58;;;;;;;2.35;1.90;;;;;;;-146.82;100.00;71671.09;5053550;28;20033;-75
2023/12/30 03:15:25;;;;;;;2.30;1.73;;;;;;;-146.82;100.00;71671.09;5052804;28;20051;-76
2023/12/30 03:17:51;;;;;;;2.70;2.00;;;;;;;-146.82;100.00;71671.09;5053633;28;20028;-75
2023/12/30 03:20:19;;;;;;;2.60;1.88;;;;;;;-146.82;100.00;71671.09;5052245;28;20067;-75
2023/12/30 03:22:46;;;;;;;3.20;2.05;;;;;;;-146.82;100.00;71671.09;5052463;28;20492;-77
2023/12/30 03:25:12;;;;;;;4.90;1.90;;;;;;;-146.82;100.00;71671.09;5051848;28;20402;-76
2023/12/30 03:27:38;;;;;;;2.83;2.20;;;;;;;-146.82;100.00;71671.09;5053098;28;20459;-76
2023/12/30 03:30:04;;;;;;;2.60;2.00;;;;;;;-146.82;100.00;71671.09;5053561;28;20035;-76
2023/12/30 03:32:31;;;;;;;2.88;2.08;;;;;;;-146.82;100.00;71671.09;5053725;28;20033;-76
2023/12/30 03:34:56;;;;;;;3.05;1.77;;;;;;;-146.82;100.00;71671.09;5052275;28;20039;-75
2023/12/30 03:37:24;;;;;;;2.30;1.60;;;;;;;-146.82;100.00;71671.09;5035228;28;20475;-76
2023/12/30 03:39:51;;;;;;;2.65;1.92;;;;;;;-146.82;100.00;71671.09;5053376;28;20115;-76
2023/12/30 03:42:19;;;;;;;3.42;2.00;;;;;;;-146.82;100.00;71671.09;5053049;28;20455;-75
2023/12/30 03:44:44;;;;;;;2.88;1.73;;;;;;;-146.82;100.00;71671.09;5051797;28;20036;-76
2023/12/30 03:47:11;;;;;;;3.40;2.00;;;;;;;-146.82;100.00;71671.09;5053181;28;20025;-76
2023/12/30 03:49:38;;;;;;;2.53;1.80;;;;;;;-146.82;100.00;71671.09;5052561;28;20445;-76
2023/12/30 03:52:05;;;;;;;2.85;2.15;;;;;;;-146.82;100.00;71671.09;5053069;28;20029;-77
2023/12/30 03:54:31;;;;;;;3.78;2.20;;;;;;;-146.82;100.00;71671.09;5052695;28;20037;-76
2023/12/30 03:56:58;;;;;;;2.17;1.60;;;;;;;-146.82;100.00;71671.09;5052601;28;20079;-76
2023/12/30 03:59:24;;;;;;;2.05;1.83;;;;;;;-146.82;100.00;71671.09;5049569;28;20029;-77
2023/12/30 04:01:50;;;;;;;3.25;2.10;;;;;;;-146.82;100.00;71671.09;5053073;28;20458;-76
2023/12/30 04:04:18;;;;;;;3.40;1.77;;;;;;;-146.82;100.00;71671.09;5051797;28;20032;-76
2023/12/30 04:06:46;;;;;;;3.70;1.70;;;;;;;-146.82;100.00;71671.09;5053032;28;20025;-78
2023/12/30 04:09:12;;;;;;;2.00;1.63;;;;;;;-146.82;100.00;71671.09;5052797;28;20033;-76
2023/12/30 04:11:39;;;;;;;3.70;2.00;;;;;;;-146.82;100.00;71671.09;5052754;28;20032;-77
2023/12/30 04:14:06;;;;;;;2.28;2.05;;;;;;;-146.82;100.00;71671.09;5053115;28;20017;-75
2023/12/30 04:16:31;;;;;;;3.40;2.03;;;;;;;-146.82;100.00;71671.09;5052663;28;20098;-78
2023/12/30 04:18:56;;;;;;;1.98;1.70;;;;;;;-146.82;100.00;71671.09;5034982;28;20028;-76
2023/12/30 04:21:24;;;;;;;2.10;1.70;;;;;;;-146.82;100.00;71671.09;5034900;28;20025;-76
2023/12/30 04:23:54;;;;;;;3.28;2.03;;;;;;;-146.82;100.00;71671.09;5036806;28;20044;-77
2023/12/30 04:26:19;;;;;;;2.78;1.63;;;;;;;-146.82;100.00;71671.09;5053392;28;20418;-77
2023/12/30 04:28:46;;;;;;;3.30;1.92;;;;;;;-146.82;100.00;71671.09;5056795;28;20039;-79
2023/12/30 04:31:12;;;;;;;2.33;1.83;;;;;;;-146.82;100.00;71671.09;5056289;28;20028;-78
2023/12/30 04:33:40;;;;;;;2.08;1.77;;;;;;;-146.82;100.00;71671.09;5056679;28;20047;-77
2023/12/30 04:36:05;;;;;;;2.70;2.22;;;;;;;-146.82;100.00;71671.09;5056884;28;20036;-76
2023/12/30 04:38:33;;;;;;;3.17;2.05;;;;;;;-146.82;100.00;71671.09;5055946;28;20381;-77
2023/12/30 04:41:01;;;;;;;2.78;1.90;;;;;;;-146.82;100.00;71671.09;5056591;28;20040;-77
2023/12/30 04:43:28;;;;;;;3.22;1.77;;;;;;;-146.82;100.00;71671.09;5056555;28;20025;-78
2023/12/30 04:45:54;;;;;;;3.38;1.80;;;;;;;-146.82;100.00;71671.09;5056823;28;20052;-76
2023/12/30 04:48:21;;;;;;;2.10;1.45;;;;;;;-146.82;100.00;71671.09;5056372;28;20115;-77
2023/12/30 04:50:48;;;;;;;3.70;2.28;;;;;;;-146.82;100.00;71671.09;5055844;28;20041;-75
2023/12/30 04:53:14;;;;;;;4.18;1.70;;;;;;;-146.82;100.00;71671.09;5056253;28;20028;-76
2023/12/30 04:55:41;;;;;;;3.75;1.52;;;;;;;-146.82;100.00;71671.09;5056644;28;20056;-77
2023/12/30 04:58:06;;;;;;;2.40;1.52;;;;;;;-146.82;100.00;71671.09;5056333;28;20040;-76
2023/12/30 05:00:32;;;;;;;2.35;1.52;;;;;;;-146.82;100.00;71671.09;5056277;28;20454;-77
2023/12/30 05:02:58;;;;;;;3.08;2.00;;;;;;;-146.82;100.00;71671.09;5054754;28;20037;-75
2023/12/30 05:05:26;;;;;;;2.35;2.08;;;;;;;-146.82;100.00;71671.09;5054635;28;20083;-77
2023/12/30 05:07:53;;;;;;;2.67;1.67;;;;;;;-146.82;100.00;71671.09;5055663;28;20056;-77
2023/12/30 05:10:19;;;;;;;1.55;1.10;;;;;;;-146.82;100.00;71671.09;5055912;28;20116;-77
2023/12/30 05:12:46;;;;;;;2.38;1.25;;;;;;;-146.82;100.00;71671.09;5055954;28;20039;-76
2023/12/30 05:15:14;;;;;;;1.52;1.10;;;;;;;-146.82;100.00;71671.09;5055743;28;20032;-77
2023/12/30 05:17:41;;;;;;;1.13;1.02;;;;;;;-146.82;100.00;71671.09;5055854;28;20045;-76
2023/12/30 05:20:08;;;;;;;1.15;0.85;;;;;;;-146.82;100.00;71671.09;5055488;28;20445;-77
2023/12/30 05:22:40;;;;;;;1.02;0.90;;;;;;;-146.82;100.00;71671.09;5054153;28;20058;-77
2023/12/30 05:25:05;;;;;;;0.73;0.73;;;;;;;-146.82;100.00;71671.09;5054096;28;20384;-77
2023/12/30 05:27:31;;;;;;;0.85;0.60;;;;;;;-146.82;100.00;71671.09;5055499;28;20098;-76
2023/12/30 05:30:07;;;;;;;0.75;0.70;;;;;;;-146.82;100.00;71671.09;5038210;28;20409;-76
2023/12/30 05:32:32;;;;;;;1.95;0.82;;;;;;;-146.82;100.00;71671.09;5055179;28;20040;-76
2023/12/30 05:34:59;;;;;;;2.25;1.05;;;;;;;-146.82;100.00;71671.09;5054445;28;20091;-75
2023/12/30 05:37:27;;;;;;;3.45;1.10;;;;;;;-146.82;100.00;71671.09;5054034;28;20116;-77
2023/12/30 05:39:54;;;;;;;2.05;0.80;;;;;;;-146.82;100.00;71671.09;5055360;28;20025;-77
2023/12/30 05:42:20;;;;;;;0.73;0.60;;;;;;;-146.82;100.00;71671.09;5055311;28;20086;-76
2023/12/30 05:44:54;;;;;;;2.08;1.10;;;;;;;-146.82;100.00;71671.09;5055194;28;20028;-76
2023/12/30 05:47:21;;;;;;;2.30;0.88;;;;;;;-146.82;100.00;71671.09;5055024;28;20071;-76
2023/12/30 05:49:47;;;;;;;1.85;0.63;;;;;;;-146.82;100.00;71671.09;5055161;28;20029;-75
2023/12/30 05:52:15;;;;;;;3.40;0.80;;;;;;;-146.82;100.00;71671.09;5054074;28;20090;-78
2023/12/30 05:54:44;;;;;;;1.73;0.80;;;;;;;-146.82;100.00;71671.09;5054976;28;20041;-76
2023/12/30 05:57:13;;;;;;;1.23;0.68;;;;;;;-146.82;100.00;71671.09;5053594;28;20047;-75
2023/12/30 05:59:40;;;;;;;1.42;0.88;;;;;;;-146.82;100.00;71671.09;5054591;28;20032;-77
2023/12/30 06:02:06;;;;;;;1.13;0.70;;;;;;;-146.82;100.00;71671.09;5055134;28;20024;-77
2023/12/30 06:04:31;;;;;;;1.60;1.42;;;;;;;-146.82;100.00;71671.09;5054745;28;20076;-76
2023/12/30 06:06:59;;;;;;;1.75;1.10;;;;;;;-146.82;100.00;71671.09;5053513;28;20389;-77
2023/12/30 06:09:24;;;;;;;1.38;1.10;;;;;;;-146.82;100.00;71671.09;5053629;28;20033;-76
2023/12/30 06:11:49;;;;;;;2.42;1.08;;;;;;;-146.82;100.00;71671.09;5036471;28;20036;-77
2023/12/30 06:14:17;;;;;;;2.28;1.35;;;;;;;-146.82;100.00;71671.09;5054363;28;20031;-75
2023/12/30 06:16:44;;;;;;;1.52;1.30;;;;;;;-146.82;100.00;71671.09;5054661;28;20076;-75
2023/12/30 06:19:13;;;;;;;2.70;1.30;;;;;;;-146.82;100.00;71671.09;5055319;28;20043;-76
2023/12/30 06:21:39;;;;;;;2.45;1.50;;;;;;;-146.82;100.00;71671.09;5053792;28;20118;-75
2023/12/30 06:24:06;;;;;;;4.20;1.40;;;;;;;-146.82;100.00;71671.09;5056144;28;20387;-75
2023/12/30 06:26:59;;;;;;;1.92;1.23;;;;;;;-146.82;100.00;71671.09;5052533;28;20490;-76
2023/12/30 06:29:26;;;;;;;6.65;3.45;;;;;;;-146.82;100.00;71671.09;5055115;28;20021;-78
2023/12/30 06:31:53;;;;;;;5.75;1.80;;;;;;;-146.82;100.00;71671.09;5054367;28;20020;-75
2023/12/30 06:34:19;;;;;;;3.28;1.95;;;;;;;-146.82;100.00;71671.09;5053055;28;20044;-75
2023/12/30 06:36:45;;;;;;;2.05;1.58;;;;;;;-146.82;100.00;71671.09;5052929;28;20048;-75
2023/12/30 06:39:22;;;;;;;3.88;1.73;;;;;;;-146.82;100.00;71671.09;5054019;28;20409;-75
2023/12/30 06:42:02;;;;;;;3.65;1.77;;;;;;;-146.82;100.00;71671.09;5054268;28;20539;-76
2023/12/30 06:44:29;;;;;;;4.00;2.20;;;;;;;-146.82;100.00;71671.09;5053982;28;20024;-76
2023/12/30 06:46:54;;;;;;;3.60;2.22;;;;;;;-146.82;100.00;71671.09;5052058;28;20381;-75
2023/12/30 06:49:28;;;;;;;3.53;1.90;;;;;;;-146.82;100.00;71671.09;5052462;28;20037;-75
2023/12/30 06:51:54;;;;;;;4.80;2.35;;;;;;;-146.82;100.00;71671.09;5053711;28;20436;-76
2023/12/30 06:54:21;;;;;;;4.22;2.28;;;;;;;-146.82;100.00;71671.09;5053799;28;20044;-77
2023/12/30 06:56:49;;;;;;;1.83;1.33;;;;;;;-146.82;100.00;71671.09;5053575;28;20508;-75
2023/12/30 06:59:16;;;;;;;4.13;1.20;;;;;;;-146.82;100.00;71671.09;5053934;28;20099;-75
2023/12/30 07:01:43;;;;;;;4.72;1.40;;;;;;;-146.82;100.00;71671.09;5052396;28;20035;-75
2023/12/30 07:04:09;;;;;;;2.58;1.30;;;;;;;-146.82;100.00;71671.09;5052378;28;20109;-74
2023/12/30 07:06:36;;;;;;;1.05;0.95;;;;;;;-146.82;100.00;71671.09;5053503;28;20509;-75
2023/12/30 07:09:02;;;;;;;3.03;1.05;;;;;;;-146.82;100.00;71671.09;5053842;28;20025;-77
2023/12/30 07:11:28;;;;;;;0.98;0.85;;;;;;;-146.82;100.00;71671.09;5052277;28;20029;-75
2023/12/30 07:14:02;;;;;;;1.55;0.90;;;;;;;-146.82;100.00;71671.09;5052962;28;20044;-75
2023/12/30 07:16:27;;;;;;;2.38;1.10;;;;;;;-146.82;100.00;71671.09;5053574;28;20071;-76
2023/12/30 07:18:54;;;;;;;4.03;0.93;;;;;;;-146.82;100.00;71671.09;5053344;28;20435;-75
2023/12/30 07:21:21;;;;;;;2.38;0.55;;;;;;;-146.82;100.00;71671.09;5035305;28;20037;-76
2023/12/30 07:23:47;;;;;;;0.82;0.50;;;;;;;-146.82;100.00;71671.09;5053526;28;20104;-77
2023/12/30 07:26:13;;;;;;;1.90;0.70;;;;;;;-146.82;100.00;71671.09;5051788;28;20057;-76
2023/12/30 07:28:38;;;;;;;1.35;0.80;;;;;;;-146.82;100.00;71671.09;5053391;28;20517;-76
2023/12/30 07:31:10;;;;;;;2.97;0.55;;;;;;;-146.82;100.00;71671.09;5051680;28;20445;-75
2023/12/30 07:33:36;;;;;;;0.80;0.50;;;;;;;-146.82;100.00;71671.09;5055401;28;20040;-76
2023/12/30 07:36:06;;;;;;;2.75;0.70;;;;;;;-146.82;100.00;71671.09;5058382;28;20016;-75
2023/12/30 07:38:32;;;;;;;0.63;0.40;;;;;;;-146.82;100.00;71671.09;5051582;28;20032;-81
2023/12/30 07:40:58;;;;;;;2.45;0.57;;;;;;;-146.82;100.00;71671.09;5047809;28;20146;-82
2023/12/30 07:43:24;;;;;;;3.45;1.15;;;;;;;-146.82;100.00;71671.09;5045013;28;20450;-82
2023/12/30 07:45:51;;;;;;;3.20;0.32;;;;;;;-146.82;100.00;71671.09;5039301;28;20032;-82
2023/12/30 07:48:16;;;;;;;2.95;0.77;;;;;;;-146.82;100.00;71671.09;5041742;28;20045;-84
2023/12/30 07:50:43;;;;;;;3.28;0.80;;;;;;;-146.82;100.00;71671.09;5048750;28;20032;-83
2023/12/30 07:53:10;;;;;;;2.35;0.65;;;;;;;-146.82;100.00;71671.09;5048782;28;20108;-80
2023/12/30 07:55:37;;;;;;;1.48;0.75;;;;;;;-146.82;100.00;71671.09;5051859;28;20051;-80
2023/12/30 07:58:05;;;;;;;1.92;1.20;;;;;;;-146.82;100.00;71671.09;5056666;28;20098;-81
2023/12/30 08:00:32;;;;;;;3.30;0.88;;;;;;;-146.82;100.00;71671.09;5039356;28;20030;-80
2023/12/30 08:02:59;;;;;;;3.33;1.05;;;;;;;-146.82;100.00;71671.09;5055695;28;20087;-78
2023/12/30 08:05:26;;;;;;;2.33;0.88;;;;;;;-146.82;100.00;71671.09;5039086;28;20021;-81
2023/12/30 08:07:53;;;;;;;2.17;0.70;;;;;;;-146.82;100.00;71671.09;5055546;28;20090;-80
2023/12/30 08:10:18;;;;;;;5.38;0.77;;;;;;;-146.82;100.00;71671.09;5056802;28;20107;-85
2023/12/30 08:12:47;;;;;;;5.55;0.77;;;;;;;-146.82;100.00;71671.09;5055848;28;20116;-85
2023/12/30 08:15:21;;;;;;;1.83;0.70;;;;;;;-146.82;100.00;71671.09;5056058;28;20060;-90
2023/12/30 08:18:05;;;;;;;1.70;0.63;;;;;;;-146.82;100.00;71671.09;5055742;28;20025;-84
2023/12/30 08:20:30;;;;;;;1.10;0.70;;;;;;;-146.82;100.00;71671.09;5055746;28;20090;-86
2023/12/30 08:23:08;;;;;;;2.60;0.70;;;;;;;-146.82;100.00;71671.09;5055601;28;20020;-89
2023/12/30 08:25:37;;;;;;;0.95;0.77;;;;;;;-146.82;100.00;71671.09;5053964;28;20136;-86
2023/12/30 08:28:13;;;;;;;0.77;0.65;;;;;;;-146.82;100.00;71671.09;5055493;28;20102;-83
2023/12/30 08:30:46;;;;;;;0.50;0.50;;;;;;;-146.82;100.00;71671.09;5054137;28;20017;-84
2023/12/30 08:33:11;;;;;;;1.75;0.65;;;;;;;-146.82;100.00;71671.09;5053238;28;20486;-83
2023/12/30 08:35:38;;;;;;;0.95;0.63;;;;;;;-146.82;100.00;71671.09;5056803;28;20028;-82
2023/12/30 08:38:05;;;;;;;1.45;0.70;;;;;;;-146.82;100.00;71671.09;5056924;28;20021;-82
2023/12/30 08:40:30;;;;;;;0.40;0.40;;;;;;;-146.82;100.00;71671.09;5058556;28;20025;-81
2023/12/30 08:42:56;;;;;;;2.53;0.95;;;;;;;-146.82;100.00;71671.09;5063549;28;20028;-80
2023/12/30 08:45:24;;;;;;;3.47;0.80;;;;;;;-146.82;100.00;71671.09;5073928;28;20025;-81
2023/12/30 08:47:52;;;;;;;2.00;0.65;;;;;;;-146.82;100.00;71671.09;5078069;28;20091;-82
2023/12/30 08:50:18;;;;;;;1.73;0.50;;;;;;;-146.82;100.00;71671.09;5078987;28;20063;-82
2023/12/30 08:52:45;;;;;;;1.17;0.60;;;;;;;-146.82;100.00;71671.09;5060941;28;20037;-82
2023/12/30 08:55:11;;;;;;;2.58;0.90;;;;;;;-146.82;100.00;71671.09;5079411;28;20032;-85
2023/12/30 08:57:37;;;;;;;2.38;0.93;;;;;;;-146.82;100.00;71671.09;5078315;28;20029;-83
2023/12/30 09:00:08;;;;;;;1.45;0.95;;;;;;;-146.82;100.00;71671.09;5069393;28;20032;-83
2023/12/30 09:02:36;;;;;;;1.00;0.63;;;;;;;-146.82;100.00;71671.09;5055828;28;20136;-81
2023/12/30 09:05:04;;;;;;;1.73;0.52;;;;;;;-146.82;100.00;71671.09;5038508;28;20760;-83
2023/12/30 09:07:31;;;;;;;0.60;0.60;;;;;;;-146.82;100.00;71671.09;5055289;28;20048;-82
2023/12/30 09:09:58;;;;;;;0.95;0.60;;;;;;;-146.82;100.00;71671.09;5055325;28;20094;-81
2023/12/30 09:12:24;;;;;;;2.03;1.00;;;;;;;-146.82;100.00;71671.09;5055465;28;20093;-81
2023/12/30 09:14:51;;;;;;;2.85;0.80;;;;;;;-146.82;100.00;71671.09;5054912;28;20036;-85
2023/12/30 09:17:17;;;;;;;2.08;0.95;;;;;;;-146.82;100.00;71671.09;5056414;28;20024;-84
2023/12/30 09:19:44;;;;;;;3.25;0.85;;;;;;;-146.82;100.00;71671.09;5055955;28;20031;-82
2023/12/30 09:22:10;;;;;;;2.15;0.98;;;;;;;-146.82;100.00;71671.09;5055102;28;20082;-84
2023/12/30 09:24:37;;;;;;;0.95;0.80;;;;;;;-146.82;100.00;71671.09;5056395;28;20029;-84
2023/12/30 09:27:04;;;;;;;2.10;1.52;;;;;;;-146.82;100.00;71671.09;5057336;28;20052;-83
2023/12/30 09:29:38;;;;;;;1.95;0.90;;;;;;;-146.82;100.00;71671.09;5054849;28;20064;-82
2023/12/30 09:32:03;;;;;;;2.85;0.98;;;;;;;-146.82;100.00;71671.09;5054998;28;20032;-86
2023/12/30 09:34:31;;;;;;;1.25;0.70;;;;;;;-146.82;100.00;71671.09;5054433;28;20051;-81
2023/12/30 09:36:58;;;;;;;4.63;1.17;;;;;;;-146.82;100.00;71671.09;5056573;28;20037;-82
2023/12/30 09:39:23;;;;;;;1.67;0.98;;;;;;;-146.82;100.00;71671.09;5056291;28;20037;-83
2023/12/30 09:41:51;;;;;;;1.65;0.82;;;;;;;-146.82;100.00;71671.09;5056692;28;20110;-82
2023/12/30 09:44:19;;;;;;;2.25;1.73;;;;;;;-146.82;100.00;71671.09;5057068;28;20041;-81
2023/12/30 09:46:47;;;;;;;1.70;1.58;;;;;;;-146.82;100.00;71671.09;5055897;28;20033;-82
2023/12/30 09:49:15;;;;;;;2.95;1.30;;;;;;;-146.82;100.00;71671.09;5054158;28;20041;-85
2023/12/30 09:51:42;;;;;;;1.75;1.10;;;;;;;-146.82;100.00;71671.09;5054778;28;20187;-87
2023/12/30 09:54:10;;;;;;;1.35;0.82;;;;;;;-146.82;100.00;71671.09;5054741;28;20033;-86
2023/12/30 09:56:40;;;;;;;3.63;1.10;;;;;;;-146.82;100.00;71671.09;5038735;28;20474;-88
2023/12/30 09:59:06;;;;;;;4.47;1.10;;;;;;;-146.82;100.00;71671.09;5054571;28;20040;-84
2023/12/30 10:01:33;;;;;;;3.60;1.20;;;;;;;-146.82;100.00;71671.09;5040251;28;20530;-84
2023/12/30 10:04:00;;;;;;;1.60;1.08;;;;;;;-146.82;100.00;71671.09;5055501;28;20036;-87
2023/12/30 10:06:27;;;;;;;4.28;1.10;;;;;;;-146.82;100.00;71671.09;5056502;28;20033;-84
2023/12/30 10:08:53;;;;;;;2.15;0.80;;;;;;;-146.82;100.00;71671.09;5063239;28;20025;-85
2023/12/30 10:11:18;;;;;;;2.33;1.30;;;;;;;-146.82;100.00;71671.09;5067022;28;20044;-85
2023/12/30 10:13:44;;;;;;;1.30;0.98;;;;;;;-146.82;100.00;71671.09;5066846;28;20032;-85
2023/12/30 10:16:12;;;;;;;1.33;1.20;;;;;;;-146.82;100.00;71671.09;5067641;28;20120;-85
2023/12/30 10:18:39;;;;;;;1.38;1.20;;;;;;;-146.82;100.00;71671.09;5066237;28;20032;-84
2023/12/30 10:21:07;;;;;;;2.42;0.98;;;;;;;-146.82;100.00;71671.09;5065270;28;20033;-85
2023/12/30 10:23:42;;;;;;;2.90;1.20;;;;;;;-146.82;100.00;71671.09;5040371;28;20037;-86
2023/12/30 10:26:09;;;;;;;3.58;1.38;;;;;;;-146.82;100.00;71671.09;5053938;28;20053;-84
2023/12/30 10:28:35;;;;;;;1.38;1.10;;;;;;;-146.82;100.00;71671.09;5053935;28;20069;-88
2023/12/30 10:31:06;;;;;;;1.52;0.85;;;;;;;-146.82;100.00;71671.09;5054095;28;20028;-88
2023/12/30 10:33:34;;;;;;;2.00;1.33;;;;;;;-146.82;100.00;71671.09;5035713;28;20033;-84
2023/12/30 10:36:00;;;;;;;2.75;1.42;;;;;;;-146.82;100.00;71671.09;5054611;28;20478;-86
2023/12/30 10:38:26;;;;;;;2.35;1.02;;;;;;;-146.82;100.00;71671.09;5054312;28;20113;-84
2023/12/30 10:40:52;;;;;;;2.38;1.10;;;;;;;-146.82;100.00;71671.09;5036843;28;20463;-85
2023/12/30 10:43:21;;;;;;;1.77;0.95;;;;;;;-146.82;100.00;71671.09;5053525;28;20036;-81
2023/12/30 10:45:56;;;;;;;3.17;1.52;;;;;;;-146.82;100.00;71671.09;5051335;28;20044;-82
2023/12/30 10:48:23;;;;;;;1.80;1.30;;;;;;;-146.82;100.00;71671.09;5031349;28;20402;-82
2023/12/30 10:50:53;;;;;;;4.72;1.77;;;;;;;-146.82;100.00;71671.09;5029641;28;20036;-82
2023/12/30 10:53:51;;;;;;;3.30;1.27;;;;;;;-146.82;100.00;71671.09;5040424;28;20095;-82
2023/12/30 10:56:21;;;;;;;2.35;1.10;;;;;;;-146.82;100.00;71671.09;5032758;28;20053;-82
2023/12/30 10:58:50;;;;;;;1.98;1.40;;;;;;;-146.82;100.00;71671.09;5033299;28;20043;-86
2023/12/30 11:01:16;;;;;;;1.95;1.13;;;;;;;-146.82;100.00;71671.09;5019335;28;20041;-86
2023/12/30 11:03:42;;;;;;;2.33;1.30;;;;;;;-146.82;100.00;71671.09;5035730;28;20378;-84
2023/12/30 11:06:32;;;;;;;1.63;1.23;;;;;;;-146.82;100.00;71671.09;5053752;28;20029;-87
2023/12/30 11:09:00;;;;;;;2.83;1.30;;;;;;;-146.82;100.00;71671.09;5052029;28;20162;-85
2023/12/30 11:11:26;;;;;;;4.40;1.45;;;;;;;-146.82;100.00;71671.09;5052562;28;20033;-88
2023/12/30 11:13:54;;;;;;;5.88;1.52;;;;;;;-146.82;100.00;71671.09;5050918;28;20063;-85